sensor_id;sensor_type;location;lat;lon;timestamp;P1;durP1;ratioP1;P2;durP2;ratioP2
33862;SDS011;20158;51.436;-2.742;2022-11-23T00:00:02;6.03;;;2.35;;
33862;SDS011;20158;51.436;-2.742;2022-11-23T00:02:52;7.53;;;2.20;;
33862;SDS011;20158;51.436;-2.742;2022-11-23T00:05:37;3.15;;;1.73;;
33862;SDS011;20158;51.436;-2.742;2022-11-23T00:08:22;4.15;;;2.03;;
33862;SDS011;20158;51.436;-2.742;2022-11-23T00:11:06;5.05;;;2.17;;
33862;SDS011;20158;51.436;-2.742;2022-11-23T00:13:51;6.15;;;2.38;;
33862;SDS011;20158;51.436;-2.742;2022-11-23T00:16:35;5.07;;;2.05;;
33862;SDS011;20158;51.436;-2.742;2022-11-23T00:19:20;5.10;;;1.98;;
33862;SDS011;20158;51.436;-2.742;2022-11-23T00:22:05;6.95;;;2.15;;
33862;SDS011;20158;51.436;-2.742;2022-11-23T00:24:49;4.45;;;1.67;;
33862;SDS011;20158;51.436;-2.742;2022-11-23T00:27:34;5.13;;;1.73;;
33862;SDS011;20158;51.436;-2.742;2022-11-23T00:30:19;3.95;;;1.52;;
33862;SDS011;20158;51.436;-2.742;2022-11-23T00:33:04;7.50;;;1.90;;
33862;SDS011;20158;51.436;-2.742;2022-11-23T00:35:57;2.83;;;1.48;;
33862;SDS011;20158;51.436;-2.742;2022-11-23T00:38:49;4.10;;;1.50;;
33862;SDS011;20158;51.436;-2.742;2022-11-23T00:41:34;5.50;;;2.13;;
33862;SDS011;20158;51.436;-2.742;2022-11-23T00:44:19;4.18;;;1.58;;
33862;SDS011;20158;51.436;-2.742;2022-11-23T00:47:04;3.67;;;1.52;;
33862;SDS011;20158;51.436;-2.742;2022-11-23T00:49:51;6.47;;;1.77;;
33862;SDS011;20158;51.436;-2.742;2022-11-23T00:52:36;3.00;;;1.50;;
33862;SDS011;20158;51.436;-2.742;2022-11-23T00:55:21;2.25;;;1.15;;
33862;SDS011;20158;51.436;-2.742;2022-11-23T00:58:05;6.10;;;1.38;;
33862;SDS011;20158;51.436;-2.742;2022-11-23T01:00:58;8.88;;;2.10;;
33862;SDS011;20158;51.436;-2.742;2022-11-23T01:03:45;5.55;;;2.00;;
33862;SDS011;20158;51.436;-2.742;2022-11-23T01:06:31;5.25;;;2.42;;
33862;SDS011;20158;51.436;-2.742;2022-11-23T01:09:17;3.78;;;1.20;;
33862;SDS011;20158;51.436;-2.742;2022-11-23T01:12:06;4.40;;;1.25;;
33862;SDS011;20158;51.436;-2.742;2022-11-23T01:14:52;3.83;;;1.27;;
33862;SDS011;20158;51.436;-2.742;2022-11-23T01:17:39;6.00;;;1.48;;
33862;SDS011;20158;51.436;-2.742;2022-11-23T01:20:25;3.35;;;1.17;;
33862;SDS011;20158;51.436;-2.742;2022-11-23T01:23:10;3.10;;;1.30;;
33862;SDS011;20158;51.436;-2.742;2022-11-23T01:25:55;3.72;;;1.08;;
33862;SDS011;20158;51.436;-2.742;2022-11-23T01:28:40;5.25;;;2.08;;
33862;SDS011;20158;51.436;-2.742;2022-11-23T01:31:24;6.18;;;1.33;;
33862;SDS011;20158;51.436;-2.742;2022-11-23T01:34:09;5.43;;;1.60;;
33862;SDS011;20158;51.436;-2.742;2022-11-23T01:36:55;3.40;;;1.08;;
33862;SDS011;20158;51.436;-2.742;2022-11-23T01:39:39;3.92;;;1.42;;
33862;SDS011;20158;51.436;-2.742;2022-11-23T01:42:38;4.65;;;1.33;;
33862;SDS011;20158;51.436;-2.742;2022-11-23T01:45:37;4.07;;;1.10;;
33862;SDS011;20158;51.436;-2.742;2022-11-23T01:48:31;2.78;;;0.90;;
33862;SDS011;20158;51.436;-2.742;2022-11-23T01:51:22;5.80;;;1.30;;
33862;SDS011;20158;51.436;-2.742;2022-11-23T01:54:21;7.80;;;1.58;;
33862;SDS011;20158;51.436;-2.742;2022-11-23T01:57:12;5.05;;;1.52;;
33862;SDS011;20158;51.436;-2.742;2022-11-23T02:00:07;2.40;;;1.00;;
33862;SDS011;20158;51.436;-2.742;2022-11-23T02:03:00;4.20;;;1.23;;
33862;SDS011;20158;51.436;-2.742;2022-11-23T02:05:48;3.08;;;1.80;;
33862;SDS011;20158;51.436;-2.742;2022-11-23T02:08:37;4.47;;;1.20;;
33862;SDS011;20158;51.436;-2.742;2022-11-23T02:11:21;7.82;;;1.20;;
33862;SDS011;20158;51.436;-2.742;2022-11-23T02:14:06;2.95;;;1.00;;
33862;SDS011;20158;51.436;-2.742;2022-11-23T02:16:51;6.35;;;1.40;;
33862;SDS011;20158;51.436;-2.742;2022-11-23T02:28:23;4.72;;;1.40;;
33862;SDS011;20158;51.436;-2.742;2022-11-23T02:31:10;3.33;;;0.80;;
33862;SDS011;20158;51.436;-2.742;2022-11-23T02:33:54;2.53;;;1.05;;
33862;SDS011;20158;51.436;-2.742;2022-11-23T02:36:46;10.63;;;1.88;;
33862;SDS011;20158;51.436;-2.742;2022-11-23T02:42:20;4.40;;;0.90;;
33862;SDS011;20158;51.436;-2.742;2022-11-23T02:48:10;3.13;;;1.23;;
33862;SDS011;20158;51.436;-2.742;2022-11-23T02:50:55;8.57;;;1.55;;
33862;SDS011;20158;51.436;-2.742;2022-11-23T02:53:41;5.07;;;1.30;;
33862;SDS011;20158;51.436;-2.742;2022-11-23T02:56:27;4.50;;;1.35;;
33862;SDS011;20158;51.436;-2.742;2022-11-23T02:59:12;7.22;;;2.17;;
33862;SDS011;20158;51.436;-2.742;2022-11-23T03:01:57;5.05;;;1.60;;
33862;SDS011;20158;51.436;-2.742;2022-11-23T03:04:42;6.45;;;1.88;;
33862;SDS011;20158;51.436;-2.742;2022-11-23T03:07:26;3.03;;;1.05;;
33862;SDS011;20158;51.436;-2.742;2022-11-23T03:10:11;5.82;;;1.33;;
33862;SDS011;20158;51.436;-2.742;2022-11-23T03:12:56;5.75;;;1.45;;
33862;SDS011;20158;51.436;-2.742;2022-11-23T03:15:42;9.73;;;1.33;;
33862;SDS011;20158;51.436;-2.742;2022-11-23T03:18:27;11.00;;;1.70;;
33862;SDS011;20158;51.436;-2.742;2022-11-23T03:21:12;4.28;;;1.33;;
33862;SDS011;20158;51.436;-2.742;2022-11-23T03:23:56;7.60;;;1.85;;
33862;SDS011;20158;51.436;-2.742;2022-11-23T03:26:41;5.32;;;1.00;;
33862;SDS011;20158;51.436;-2.742;2022-11-23T03:29:27;5.10;;;1.05;;
33862;SDS011;20158;51.436;-2.742;2022-11-23T03:32:14;9.00;;;1.30;;
33862;SDS011;20158;51.436;-2.742;2022-11-23T03:35:03;4.40;;;1.83;;
33862;SDS011;20158;51.436;-2.742;2022-11-23T03:37:51;6.53;;;1.60;;
33862;SDS011;20158;51.436;-2.742;2022-11-23T03:40:36;5.43;;;1.27;;
33862;SDS011;20158;51.436;-2.742;2022-11-23T03:43:36;7.30;;;1.40;;
33862;SDS011;20158;51.436;-2.742;2022-11-23T03:46:21;6.70;;;1.60;;
33862;SDS011;20158;51.436;-2.742;2022-11-23T03:49:05;7.25;;;1.48;;
33862;SDS011;20158;51.436;-2.742;2022-11-23T03:51:50;5.05;;;1.40;;
33862;SDS011;20158;51.436;-2.742;2022-11-23T03:54:35;5.35;;;1.42;;
33862;SDS011;20158;51.436;-2.742;2022-11-23T03:57:20;6.57;;;2.70;;
33862;SDS011;20158;51.436;-2.742;2022-11-23T04:00:05;7.47;;;1.67;;
33862;SDS011;20158;51.436;-2.742;2022-11-23T04:02:57;6.57;;;1.48;;
33862;SDS011;20158;51.436;-2.742;2022-11-23T04:06:04;4.30;;;1.50;;
33862;SDS011;20158;51.436;-2.742;2022-11-23T04:08:59;7.40;;;1.27;;
33862;SDS011;20158;51.436;-2.742;2022-11-23T04:12:04;3.97;;;0.70;;
33862;SDS011;20158;51.436;-2.742;2022-11-23T04:14:49;6.45;;;1.40;;
33862;SDS011;20158;51.436;-2.742;2022-11-23T04:17:34;2.80;;;1.08;;
33862;SDS011;20158;51.436;-2.742;2022-11-23T04:20:19;6.25;;;0.95;;
33862;SDS011;20158;51.436;-2.742;2022-11-23T04:23:05;6.20;;;2.17;;
33862;SDS011;20158;51.436;-2.742;2022-11-23T04:25:50;7.25;;;1.33;;
33862;SDS011;20158;51.436;-2.742;2022-11-23T04:28:36;6.38;;;1.17;;
33862;SDS011;20158;51.436;-2.742;2022-11-23T04:31:21;3.00;;;1.30;;
33862;SDS011;20158;51.436;-2.742;2022-11-23T04:34:12;6.70;;;1.08;;
33862;SDS011;20158;51.436;-2.742;2022-11-23T04:36:56;5.57;;;1.48;;
33862;SDS011;20158;51.436;-2.742;2022-11-23T04:39:47;6.53;;;1.17;;
33862;SDS011;20158;51.436;-2.742;2022-11-23T04:42:44;3.33;;;1.15;;
33862;SDS011;20158;51.436;-2.742;2022-11-23T04:45:29;6.60;;;1.52;;
33862;SDS011;20158;51.436;-2.742;2022-11-23T04:48:18;6.07;;;1.98;;
33862;SDS011;20158;51.436;-2.742;2022-11-23T04:51:02;5.15;;;1.15;;
33862;SDS011;20158;51.436;-2.742;2022-11-23T04:53:53;7.18;;;1.30;;
33862;SDS011;20158;51.436;-2.742;2022-11-23T04:56:37;4.68;;;1.55;;
33862;SDS011;20158;51.436;-2.742;2022-11-23T04:59:22;6.28;;;1.40;;
33862;SDS011;20158;51.436;-2.742;2022-11-23T05:02:08;3.20;;;1.20;;
33862;SDS011;20158;51.436;-2.742;2022-11-23T05:04:53;2.55;;;1.13;;
33862;SDS011;20158;51.436;-2.742;2022-11-23T05:07:41;5.30;;;1.30;;
33862;SDS011;20158;51.436;-2.742;2022-11-23T05:10:26;3.92;;;0.95;;
33862;SDS011;20158;51.436;-2.742;2022-11-23T05:13:15;3.42;;;0.88;;
33862;SDS011;20158;51.436;-2.742;2022-11-23T05:16:01;4.78;;;1.02;;
33862;SDS011;20158;51.436;-2.742;2022-11-23T05:18:46;5.82;;;1.40;;
33862;SDS011;20158;51.436;-2.742;2022-11-23T05:21:30;5.38;;;1.25;;
33862;SDS011;20158;51.436;-2.742;2022-11-23T05:24:16;4.03;;;0.90;;
33862;SDS011;20158;51.436;-2.742;2022-11-23T05:27:13;3.45;;;0.80;;
33862;SDS011;20158;51.436;-2.742;2022-11-23T05:29:58;4.57;;;1.10;;
33862;SDS011;20158;51.436;-2.742;2022-11-23T05:32:43;1.35;;;0.75;;
33862;SDS011;20158;51.436;-2.742;2022-11-23T05:35:28;3.00;;;0.75;;
33862;SDS011;20158;51.436;-2.742;2022-11-23T05:38:14;2.58;;;0.82;;
33862;SDS011;20158;51.436;-2.742;2022-11-23T05:40:59;4.20;;;0.90;;
33862;SDS011;20158;51.436;-2.742;2022-11-23T05:43:45;3.70;;;0.95;;
33862;SDS011;20158;51.436;-2.742;2022-11-23T05:46:34;2.88;;;1.35;;
33862;SDS011;20158;51.436;-2.742;2022-11-23T05:49:20;1.67;;;0.98;;
33862;SDS011;20158;51.436;-2.742;2022-11-23T05:52:04;2.17;;;0.60;;
33862;SDS011;20158;51.436;-2.742;2022-11-23T05:54:49;2.42;;;0.60;;
33862;SDS011;20158;51.436;-2.742;2022-11-23T05:57:34;5.28;;;1.00;;
33862;SDS011;20158;51.436;-2.742;2022-11-23T06:00:19;1.95;;;0.52;;
33862;SDS011;20158;51.436;-2.742;2022-11-23T06:03:14;1.42;;;0.70;;
33862;SDS011;20158;51.436;-2.742;2022-11-23T06:05:58;5.30;;;0.73;;
33862;SDS011;20158;51.436;-2.742;2022-11-23T06:08:48;1.73;;;0.70;;
33862;SDS011;20158;51.436;-2.742;2022-11-23T06:11:34;4.03;;;0.75;;
33862;SDS011;20158;51.436;-2.742;2022-11-23T06:14:25;1.70;;;0.80;;
33862;SDS011;20158;51.436;-2.742;2022-11-23T06:17:10;0.57;;;0.40;;
33862;SDS011;20158;51.436;-2.742;2022-11-23T06:20:05;2.33;;;0.80;;
33862;SDS011;20158;51.436;-2.742;2022-11-23T06:22:53;2.25;;;0.47;;
33862;SDS011;20158;51.436;-2.742;2022-11-23T06:25:40;0.82;;;0.50;;
33862;SDS011;20158;51.436;-2.742;2022-11-23T06:28:39;0.98;;;0.35;;
33862;SDS011;20158;51.436;-2.742;2022-11-23T06:31:25;1.35;;;0.40;;
33862;SDS011;20158;51.436;-2.742;2022-11-23T06:34:10;2.67;;;0.50;;
33862;SDS011;20158;51.436;-2.742;2022-11-23T06:36:55;1.80;;;0.88;;
33862;SDS011;20158;51.436;-2.742;2022-11-23T06:39:41;2.00;;;0.63;;
33862;SDS011;20158;51.436;-2.742;2022-11-23T06:42:26;1.48;;;0.40;;
33862;SDS011;20158;51.436;-2.742;2022-11-23T06:45:10;0.57;;;0.32;;
33862;SDS011;20158;51.436;-2.742;2022-11-23T06:47:55;1.50;;;1.25;;
33862;SDS011;20158;51.436;-2.742;2022-11-23T06:50:40;0.50;;;0.30;;
33862;SDS011;20158;51.436;-2.742;2022-11-23T06:53:26;1.08;;;0.28;;
33862;SDS011;20158;51.436;-2.742;2022-11-23T06:56:16;0.57;;;0.40;;
33862;SDS011;20158;51.436;-2.742;2022-11-23T06:59:01;1.13;;;0.52;;
33862;SDS011;20158;51.436;-2.742;2022-11-23T07:01:46;0.60;;;0.50;;
33862;SDS011;20158;51.436;-2.742;2022-11-23T07:04:32;0.98;;;0.45;;
33862;SDS011;20158;51.436;-2.742;2022-11-23T07:07:17;1.08;;;0.77;;
33862;SDS011;20158;51.436;-2.742;2022-11-23T07:10:08;2.60;;;0.98;;
33862;SDS011;20158;51.436;-2.742;2022-11-23T07:13:02;1.25;;;0.63;;
33862;SDS011;20158;51.436;-2.742;2022-11-23T07:15:48;9.15;;;1.83;;
33862;SDS011;20158;51.436;-2.742;2022-11-23T07:18:33;6.53;;;1.27;;
33862;SDS011;20158;51.436;-2.742;2022-11-23T07:21:19;6.10;;;1.30;;
33862;SDS011;20158;51.436;-2.742;2022-11-23T07:24:03;6.78;;;1.58;;
33862;SDS011;20158;51.436;-2.742;2022-11-23T07:26:48;7.30;;;1.27;;
33862;SDS011;20158;51.436;-2.742;2022-11-23T07:29:33;7.70;;;1.30;;
33862;SDS011;20158;51.436;-2.742;2022-11-23T07:32:18;7.60;;;1.80;;
33862;SDS011;20158;51.436;-2.742;2022-11-23T07:35:02;8.18;;;2.10;;
33862;SDS011;20158;51.436;-2.742;2022-11-23T07:37:51;9.20;;;1.48;;
33862;SDS011;20158;51.436;-2.742;2022-11-23T07:40:36;6.25;;;1.40;;
33862;SDS011;20158;51.436;-2.742;2022-11-23T07:43:22;8.10;;;1.25;;
33862;SDS011;20158;51.436;-2.742;2022-11-23T07:46:07;4.55;;;1.80;;
33862;SDS011;20158;51.436;-2.742;2022-11-23T07:48:51;8.85;;;1.50;;
33862;SDS011;20158;51.436;-2.742;2022-11-23T07:51:37;6.55;;;1.85;;
33862;SDS011;20158;51.436;-2.742;2022-11-23T07:54:21;7.80;;;1.25;;
33862;SDS011;20158;51.436;-2.742;2022-11-23T07:57:06;8.70;;;1.73;;
33862;SDS011;20158;51.436;-2.742;2022-11-23T07:59:51;6.70;;;1.15;;
33862;SDS011;20158;51.436;-2.742;2022-11-23T08:02:35;8.40;;;2.42;;
33862;SDS011;20158;51.436;-2.742;2022-11-23T08:05:20;5.85;;;1.73;;
33862;SDS011;20158;51.436;-2.742;2022-11-23T08:08:05;8.02;;;2.42;;
33862;SDS011;20158;51.436;-2.742;2022-11-23T08:10:50;8.27;;;1.52;;
33862;SDS011;20158;51.436;-2.742;2022-11-23T08:13:34;10.02;;;2.55;;
33862;SDS011;20158;51.436;-2.742;2022-11-23T08:16:20;9.73;;;1.50;;
33862;SDS011;20158;51.436;-2.742;2022-11-23T08:19:04;9.63;;;2.10;;
33862;SDS011;20158;51.436;-2.742;2022-11-23T08:21:49;7.60;;;1.38;;
33862;SDS011;20158;51.436;-2.742;2022-11-23T08:24:34;6.97;;;1.90;;
33862;SDS011;20158;51.436;-2.742;2022-11-23T08:27:18;11.25;;;2.05;;
33862;SDS011;20158;51.436;-2.742;2022-11-23T08:30:03;4.22;;;1.30;;
33862;SDS011;20158;51.436;-2.742;2022-11-23T08:32:48;5.65;;;1.52;;
33862;SDS011;20158;51.436;-2.742;2022-11-23T08:35:36;7.70;;;1.52;;
33862;SDS011;20158;51.436;-2.742;2022-11-23T08:38:22;13.68;;;1.92;;
33862;SDS011;20158;51.436;-2.742;2022-11-23T08:41:06;6.75;;;1.35;;
33862;SDS011;20158;51.436;-2.742;2022-11-23T08:43:51;8.80;;;1.38;;
33862;SDS011;20158;51.436;-2.742;2022-11-23T08:46:36;7.53;;;1.50;;
33862;SDS011;20158;51.436;-2.742;2022-11-23T08:49:20;8.05;;;1.50;;
33862;SDS011;20158;51.436;-2.742;2022-11-23T08:52:05;8.43;;;1.75;;
33862;SDS011;20158;51.436;-2.742;2022-11-23T08:54:49;6.55;;;2.65;;
33862;SDS011;20158;51.436;-2.742;2022-11-23T08:57:34;7.93;;;1.30;;
33862;SDS011;20158;51.436;-2.742;2022-11-23T09:00:19;9.30;;;2.42;;
33862;SDS011;20158;51.436;-2.742;2022-11-23T09:03:03;6.25;;;1.35;;
33862;SDS011;20158;51.436;-2.742;2022-11-23T09:05:48;8.95;;;1.52;;
33862;SDS011;20158;51.436;-2.742;2022-11-23T09:08:34;7.13;;;1.63;;
33862;SDS011;20158;51.436;-2.742;2022-11-23T09:11:18;5.25;;;1.58;;
33862;SDS011;20158;51.436;-2.742;2022-11-23T09:14:03;10.98;;;2.30;;
33862;SDS011;20158;51.436;-2.742;2022-11-23T09:16:47;6.63;;;2.00;;
33862;SDS011;20158;51.436;-2.742;2022-11-23T09:19:32;5.47;;;1.60;;
33862;SDS011;20158;51.436;-2.742;2022-11-23T09:22:17;12.18;;;3.15;;
33862;SDS011;20158;51.436;-2.742;2022-11-23T09:25:02;8.57;;;2.35;;
33862;SDS011;20158;51.436;-2.742;2022-11-23T09:27:47;9.60;;;2.33;;
33862;SDS011;20158;51.436;-2.742;2022-11-23T09:30:32;11.38;;;2.58;;
33862;SDS011;20158;51.436;-2.742;2022-11-23T09:33:16;10.88;;;2.15;;
33862;SDS011;20158;51.436;-2.742;2022-11-23T09:36:02;12.02;;;3.42;;
33862;SDS011;20158;51.436;-2.742;2022-11-23T09:38:50;9.43;;;2.53;;
33862;SDS011;20158;51.436;-2.742;2022-11-23T09:44:47;15.98;;;3.22;;
33862;SDS011;20158;51.436;-2.742;2022-11-23T09:51:15;13.25;;;2.97;;
33862;SDS011;20158;51.436;-2.742;2022-11-23T09:54:08;10.77;;;2.72;;
33862;SDS011;20158;51.436;-2.742;2022-11-23T09:57:05;15.45;;;3.30;;
33862;SDS011;20158;51.436;-2.742;2022-11-23T10:02:51;17.65;;;4.55;;
33862;SDS011;20158;51.436;-2.742;2022-11-23T10:05:36;18.77;;;6.22;;
33862;SDS011;20158;51.436;-2.742;2022-11-23T10:17:28;14.18;;;2.72;;
33862;SDS011;20158;51.436;-2.742;2022-11-23T10:26:16;11.77;;;2.70;;
33862;SDS011;20158;51.436;-2.742;2022-11-23T10:32:00;16.17;;;3.30;;
33862;SDS011;20158;51.436;-2.742;2022-11-23T10:37:38;11.93;;;2.90;;
33862;SDS011;20158;51.436;-2.742;2022-11-23T10:40:25;21.98;;;4.10;;
33862;SDS011;20158;51.436;-2.742;2022-11-23T10:43:14;16.40;;;3.33;;
33862;SDS011;20158;51.436;-2.742;2022-11-23T10:46:23;17.48;;;3.58;;
33862;SDS011;20158;51.436;-2.742;2022-11-23T10:52:24;16.00;;;3.47;;
33862;SDS011;20158;51.436;-2.742;2022-11-23T10:55:14;12.52;;;2.72;;
33862;SDS011;20158;51.436;-2.742;2022-11-23T10:58:00;13.73;;;3.65;;
33862;SDS011;20158;51.436;-2.742;2022-11-23T11:00:45;15.73;;;4.82;;
33862;SDS011;20158;51.436;-2.742;2022-11-23T11:03:39;10.63;;;3.85;;
33862;SDS011;20158;51.436;-2.742;2022-11-23T11:06:28;14.07;;;3.55;;
33862;SDS011;20158;51.436;-2.742;2022-11-23T11:09:17;10.63;;;2.85;;
33862;SDS011;20158;51.436;-2.742;2022-11-23T11:12:03;12.65;;;3.45;;
33862;SDS011;20158;51.436;-2.742;2022-11-23T11:14:58;9.77;;;2.90;;
33862;SDS011;20158;51.436;-2.742;2022-11-23T11:17:58;7.32;;;2.78;;
33862;SDS011;20158;51.436;-2.742;2022-11-23T11:20:43;15.13;;;3.35;;
33862;SDS011;20158;51.436;-2.742;2022-11-23T11:23:28;8.70;;;2.35;;
33862;SDS011;20158;51.436;-2.742;2022-11-23T11:26:18;9.93;;;3.38;;
33862;SDS011;20158;51.436;-2.742;2022-11-23T11:29:05;9.45;;;3.28;;
33862;SDS011;20158;51.436;-2.742;2022-11-23T11:31:58;11.93;;;3.45;;
33862;SDS011;20158;51.436;-2.742;2022-11-23T11:34:47;10.50;;;2.47;;
33862;SDS011;20158;51.436;-2.742;2022-11-23T11:37:37;11.30;;;2.53;;
33862;SDS011;20158;51.436;-2.742;2022-11-23T11:43:33;12.63;;;2.20;;
33862;SDS011;20158;51.436;-2.742;2022-11-23T11:46:26;9.02;;;2.38;;
33862;SDS011;20158;51.436;-2.742;2022-11-23T11:49:18;9.02;;;2.50;;
33862;SDS011;20158;51.436;-2.742;2022-11-23T11:52:20;10.93;;;2.00;;
33862;SDS011;20158;51.436;-2.742;2022-11-23T11:55:21;12.68;;;3.40;;
33862;SDS011;20158;51.436;-2.742;2022-11-23T11:58:09;9.93;;;3.67;;
33862;SDS011;20158;51.436;-2.742;2022-11-23T12:01:06;18.17;;;3.65;;
33862;SDS011;20158;51.436;-2.742;2022-11-23T12:04:04;10.40;;;2.78;;
33862;SDS011;20158;51.436;-2.742;2022-11-23T12:07:01;11.73;;;2.85;;
33862;SDS011;20158;51.436;-2.742;2022-11-23T12:09:59;11.23;;;2.78;;
33862;SDS011;20158;51.436;-2.742;2022-11-23T12:13:04;11.00;;;2.75;;
33862;SDS011;20158;51.436;-2.742;2022-11-23T12:15:53;12.73;;;3.35;;
33862;SDS011;20158;51.436;-2.742;2022-11-23T12:18:48;11.10;;;2.30;;
33862;SDS011;20158;51.436;-2.742;2022-11-23T12:40:05;12.10;;;3.42;;
33862;SDS011;20158;51.436;-2.742;2022-11-23T12:43:18;12.82;;;4.72;;
33862;SDS011;20158;51.436;-2.742;2022-11-23T12:46:10;10.57;;;3.67;;
33862;SDS011;20158;51.436;-2.742;2022-11-23T12:49:20;10.90;;;2.45;;
33862;SDS011;20158;51.436;-2.742;2022-11-23T12:55:49;12.90;;;2.90;;
33862;SDS011;20158;51.436;-2.742;2022-11-23T12:58:46;14.88;;;4.35;;
33862;SDS011;20158;51.436;-2.742;2022-11-23T13:01:38;11.98;;;3.13;;
33862;SDS011;20158;51.436;-2.742;2022-11-23T13:17:27;13.30;;;2.67;;
33862;SDS011;20158;51.436;-2.742;2022-11-23T13:20:46;18.65;;;3.58;;
33862;SDS011;20158;51.436;-2.742;2022-11-23T13:23:35;11.73;;;2.83;;
33862;SDS011;20158;51.436;-2.742;2022-11-23T13:26:25;13.93;;;3.70;;
33862;SDS011;20158;51.436;-2.742;2022-11-23T13:40:58;11.30;;;2.25;;
33862;SDS011;20158;51.436;-2.742;2022-11-23T13:43:43;7.03;;;2.13;;
33862;SDS011;20158;51.436;-2.742;2022-11-23T13:46:29;9.02;;;2.83;;
33862;SDS011;20158;51.436;-2.742;2022-11-23T13:52:28;14.40;;;3.70;;
33862;SDS011;20158;51.436;-2.742;2022-11-23T14:01:08;12.75;;;3.70;;
33862;SDS011;20158;51.436;-2.742;2022-11-23T14:03:53;7.88;;;2.50;;
33862;SDS011;20158;51.436;-2.742;2022-11-23T14:09:33;9.60;;;2.60;;
33862;SDS011;20158;51.436;-2.742;2022-11-23T14:15:34;11.82;;;2.63;;
33862;SDS011;20158;51.436;-2.742;2022-11-23T14:34:23;9.32;;;1.95;;
33862;SDS011;20158;51.436;-2.742;2022-11-23T14:37:35;10.65;;;2.53;;
33862;SDS011;20158;51.436;-2.742;2022-11-23T14:43:34;10.15;;;2.20;;
33862;SDS011;20158;51.436;-2.742;2022-11-23T14:46:23;12.18;;;3.08;;
33862;SDS011;20158;51.436;-2.742;2022-11-23T14:49:11;10.48;;;3.22;;
33862;SDS011;20158;51.436;-2.742;2022-11-23T14:51:57;16.15;;;3.40;;
33862;SDS011;20158;51.436;-2.742;2022-11-23T14:54:50;7.63;;;2.08;;
33862;SDS011;20158;51.436;-2.742;2022-11-23T15:03:25;10.10;;;2.78;;
33862;SDS011;20158;51.436;-2.742;2022-11-23T15:06:13;11.23;;;3.33;;
33862;SDS011;20158;51.436;-2.742;2022-11-23T15:09:07;11.43;;;2.67;;
33862;SDS011;20158;51.436;-2.742;2022-11-23T15:12:05;11.68;;;2.10;;
33862;SDS011;20158;51.436;-2.742;2022-11-23T15:14:51;11.00;;;2.72;;
33862;SDS011;20158;51.436;-2.742;2022-11-23T15:17:37;8.70;;;2.30;;
33862;SDS011;20158;51.436;-2.742;2022-11-23T15:20:43;13.65;;;3.83;;
33862;SDS011;20158;51.436;-2.742;2022-11-23T15:23:33;9.13;;;3.10;;
33862;SDS011;20158;51.436;-2.742;2022-11-23T15:29:25;8.70;;;2.58;;
33862;SDS011;20158;51.436;-2.742;2022-11-23T15:32:19;8.45;;;2.28;;
33862;SDS011;20158;51.436;-2.742;2022-11-23T15:35:13;10.45;;;2.72;;
33862;SDS011;20158;51.436;-2.742;2022-11-23T15:37:58;9.85;;;3.33;;
33862;SDS011;20158;51.436;-2.742;2022-11-23T15:40:44;12.40;;;2.80;;
33862;SDS011;20158;51.436;-2.742;2022-11-23T15:43:30;12.63;;;2.70;;
33862;SDS011;20158;51.436;-2.742;2022-11-23T15:46:15;12.18;;;3.25;;
33862;SDS011;20158;51.436;-2.742;2022-11-23T15:49:00;10.05;;;3.08;;
33862;SDS011;20158;51.436;-2.742;2022-11-23T15:51:47;9.43;;;2.40;;
33862;SDS011;20158;51.436;-2.742;2022-11-23T15:54:35;14.05;;;3.72;;
33862;SDS011;20158;51.436;-2.742;2022-11-23T15:57:22;17.38;;;3.38;;
33862;SDS011;20158;51.436;-2.742;2022-11-23T16:00:20;12.15;;;3.20;;
33862;SDS011;20158;51.436;-2.742;2022-11-23T16:06:16;12.10;;;3.97;;
33862;SDS011;20158;51.436;-2.742;2022-11-23T16:12:25;13.70;;;3.58;;
33862;SDS011;20158;51.436;-2.742;2022-11-23T16:18:21;10.43;;;3.20;;
33862;SDS011;20158;51.436;-2.742;2022-11-23T16:21:11;11.18;;;3.55;;
33862;SDS011;20158;51.436;-2.742;2022-11-23T16:23:59;13.00;;;3.00;;
33862;SDS011;20158;51.436;-2.742;2022-11-23T16:26:43;13.88;;;3.33;;
33862;SDS011;20158;51.436;-2.742;2022-11-23T16:29:30;9.77;;;2.85;;
33862;SDS011;20158;51.436;-2.742;2022-11-23T16:32:26;11.68;;;2.53;;
33862;SDS011;20158;51.436;-2.742;2022-11-23T16:35:15;12.82;;;3.92;;
33862;SDS011;20158;51.436;-2.742;2022-11-23T16:38:01;15.52;;;4.47;;
33862;SDS011;20158;51.436;-2.742;2022-11-23T16:40:46;12.48;;;3.53;;
33862;SDS011;20158;51.436;-2.742;2022-11-23T16:43:33;9.50;;;4.07;;
33862;SDS011;20158;51.436;-2.742;2022-11-23T16:46:18;14.45;;;3.78;;
33862;SDS011;20158;51.436;-2.742;2022-11-23T16:49:03;13.63;;;3.88;;
33862;SDS011;20158;51.436;-2.742;2022-11-23T16:51:48;14.10;;;3.80;;
33862;SDS011;20158;51.436;-2.742;2022-11-23T16:54:37;12.68;;;3.30;;
33862;SDS011;20158;51.436;-2.742;2022-11-23T16:57:28;18.10;;;4.40;;
33862;SDS011;20158;51.436;-2.742;2022-11-23T17:00:16;16.33;;;5.25;;
33862;SDS011;20158;51.436;-2.742;2022-11-23T17:03:02;16.23;;;3.33;;
33862;SDS011;20158;51.436;-2.742;2022-11-23T17:05:47;17.00;;;4.28;;
33862;SDS011;20158;51.436;-2.742;2022-11-23T17:08:31;13.82;;;3.78;;
33862;SDS011;20158;51.436;-2.742;2022-11-23T17:11:22;17.13;;;3.72;;
33862;SDS011;20158;51.436;-2.742;2022-11-23T17:14:11;10.70;;;3.92;;
33862;SDS011;20158;51.436;-2.742;2022-11-23T17:16:57;9.95;;;3.45;;
33862;SDS011;20158;51.436;-2.742;2022-11-23T17:19:42;12.57;;;4.22;;
33862;SDS011;20158;51.436;-2.742;2022-11-23T17:22:30;16.35;;;4.43;;
33862;SDS011;20158;51.436;-2.742;2022-11-23T17:25:15;20.05;;;4.55;;
33862;SDS011;20158;51.436;-2.742;2022-11-23T17:28:00;10.07;;;3.60;;
33862;SDS011;20158;51.436;-2.742;2022-11-23T17:30:47;15.43;;;3.42;;
33862;SDS011;20158;51.436;-2.742;2022-11-23T17:33:32;16.25;;;4.72;;
33862;SDS011;20158;51.436;-2.742;2022-11-23T17:36:17;20.23;;;5.38;;
33862;SDS011;20158;51.436;-2.742;2022-11-23T17:39:02;16.27;;;3.90;;
33862;SDS011;20158;51.436;-2.742;2022-11-23T17:41:46;14.70;;;3.75;;
33862;SDS011;20158;51.436;-2.742;2022-11-23T17:44:31;15.40;;;4.10;;
33862;SDS011;20158;51.436;-2.742;2022-11-23T17:47:25;17.20;;;4.10;;
33862;SDS011;20158;51.436;-2.742;2022-11-23T17:50:13;15.80;;;4.40;;
33862;SDS011;20158;51.436;-2.742;2022-11-23T17:53:02;15.60;;;5.18;;
33862;SDS011;20158;51.436;-2.742;2022-11-23T17:55:47;18.50;;;4.30;;
33862;SDS011;20158;51.436;-2.742;2022-11-23T17:58:32;11.27;;;3.78;;
33862;SDS011;20158;51.436;-2.742;2022-11-23T18:01:17;19.92;;;4.13;;
33862;SDS011;20158;51.436;-2.742;2022-11-23T18:04:04;17.92;;;3.90;;
33862;SDS011;20158;51.436;-2.742;2022-11-23T18:06:49;11.20;;;3.15;;
33862;SDS011;20158;51.436;-2.742;2022-11-23T18:09:34;14.02;;;3.78;;
33862;SDS011;20158;51.436;-2.742;2022-11-23T18:12:18;17.58;;;4.50;;
33862;SDS011;20158;51.436;-2.742;2022-11-23T18:15:04;14.73;;;3.80;;
33862;SDS011;20158;51.436;-2.742;2022-11-23T18:17:50;20.02;;;6.03;;
33862;SDS011;20158;51.436;-2.742;2022-11-23T18:20:34;14.52;;;3.95;;
33862;SDS011;20158;51.436;-2.742;2022-11-23T18:23:20;16.15;;;3.72;;
33862;SDS011;20158;51.436;-2.742;2022-11-23T18:26:10;13.38;;;3.90;;
33862;SDS011;20158;51.436;-2.742;2022-11-23T18:28:57;16.15;;;4.10;;
33862;SDS011;20158;51.436;-2.742;2022-11-23T18:31:41;18.08;;;3.88;;
33862;SDS011;20158;51.436;-2.742;2022-11-23T18:34:26;10.57;;;3.72;;
33862;SDS011;20158;51.436;-2.742;2022-11-23T18:37:10;15.57;;;5.35;;
33862;SDS011;20158;51.436;-2.742;2022-11-23T18:39:55;15.57;;;5.05;;
33862;SDS011;20158;51.436;-2.742;2022-11-23T18:42:40;19.60;;;4.03;;
33862;SDS011;20158;51.436;-2.742;2022-11-23T18:45:24;14.02;;;3.28;;
33862;SDS011;20158;51.436;-2.742;2022-11-23T18:48:09;15.02;;;4.03;;
33862;SDS011;20158;51.436;-2.742;2022-11-23T18:50:54;10.45;;;3.00;;
33862;SDS011;20158;51.436;-2.742;2022-11-23T18:53:38;11.75;;;3.25;;
33862;SDS011;20158;51.436;-2.742;2022-11-23T18:56:24;10.10;;;3.33;;
33862;SDS011;20158;51.436;-2.742;2022-11-23T18:59:08;16.20;;;4.00;;